Terminal Aerodrome Forecast
Issued by NWS

Home | Current Version | Previous Version | Graphics & Text | Print | Product List | Glossary On
Versions: 1 2 3 4 5 6 7 8 9 10 11 12 13 14 15
024
FTUS45 KGGW 222326
TAFSDY
TAF
KSDY 222326Z 2300/2324 04005KT P6SM VCTS SCT070CB
     FM230400 VRB04KT P6SM VCSH BKN080
     FM231500 09006KT P6SM -TSRA OVC045CB
     FM232000 10013KT P6SM -TSRA BKN035CB=

USA.gov is the U.S. government's official web portal to all federal, state and local government web resources and services.